createdAt,value
2018-09-12T00:01:09.753Z,16.40
2018-09-12T00:03:38.402Z,16.40
2018-09-12T00:06:07.084Z,16.40
2018-09-12T00:08:35.836Z,16.40
2018-09-12T00:11:04.414Z,16.40
2018-09-12T00:13:33.022Z,16.40
2018-09-12T00:16:02.535Z,16.40
2018-09-12T00:18:31.235Z,16.30
2018-09-12T00:21:00.013Z,16.30
2018-09-12T00:23:28.678Z,16.30
2018-09-12T00:25:57.419Z,16.30
2018-09-12T00:28:26.007Z,16.30
2018-09-12T00:30:54.606Z,16.40
2018-09-12T00:33:23.253Z,16.40
2018-09-12T00:35:51.905Z,16.40
2018-09-12T00:38:20.557Z,16.40
2018-09-12T00:40:49.296Z,16.40
2018-09-12T00:43:18.074Z,16.40
2018-09-12T00:45:46.756Z,16.40
2018-09-12T00:48:15.459Z,16.40
2018-09-12T00:50:44.096Z,16.40
2018-09-12T00:53:12.705Z,16.40
2018-09-12T00:55:41.900Z,16.40
2018-09-12T00:58:10.506Z,16.50
2018-09-12T01:00:39.306Z,16.40
2018-09-12T01:03:07.928Z,16.50
2018-09-12T01:05:40.688Z,16.50
2018-09-12T01:08:10.185Z,16.50
2018-09-12T01:10:38.777Z,16.40
2018-09-12T01:13:07.695Z,16.40
2018-09-12T01:15:36.601Z,16.40
2018-09-12T01:18:05.397Z,16.40
2018-09-12T01:20:34.058Z,16.40
2018-09-12T01:23:02.737Z,16.30
2018-09-12T01:25:31.344Z,16.30
2018-09-12T01:27:59.940Z,16.20
2018-09-12T01:30:28.562Z,16.20
2018-09-12T01:32:57.756Z,16.20
2018-09-12T01:35:26.415Z,16.20
2018-09-12T01:37:55.092Z,16.10
2018-09-12T01:40:23.748Z,16.10
2018-09-12T01:42:52.407Z,16.10
2018-09-12T01:45:20.992Z,16.10
2018-09-12T01:47:49.636Z,16.10
2018-09-12T01:50:18.267Z,16.00
2018-09-12T01:52:47.447Z,16.00
2018-09-12T01:55:16.427Z,16.00
2018-09-12T01:57:45.065Z,16.00
2018-09-12T02:00:16.656Z,16.00
2018-09-12T02:02:46.019Z,16.00
2018-09-12T02:05:14.595Z,16.00
2018-09-12T02:07:43.234Z,15.90
2018-09-12T02:10:13.011Z,16.00
2018-09-12T02:12:41.513Z,15.90
2018-09-12T02:15:10.074Z,15.90
2018-09-12T02:17:38.582Z,15.90
2018-09-12T02:20:07.289Z,15.90
2018-09-12T02:22:35.917Z,15.90
2018-09-12T02:25:04.700Z,15.90
2018-09-12T02:27:33.246Z,15.90
2018-09-12T02:30:04.051Z,15.80
2018-09-12T02:32:32.672Z,15.90
2018-09-12T02:35:03.451Z,15.90
2018-09-12T02:37:32.062Z,15.80
2018-09-12T02:40:00.718Z,15.80
2018-09-12T02:42:29.363Z,15.80
2018-09-12T02:44:57.978Z,15.80
2018-09-12T02:47:39.130Z,15.80
2018-09-12T02:50:11.866Z,15.80
2018-09-12T02:52:40.563Z,15.70
2018-09-12T02:55:10.959Z,15.70
2018-09-12T02:57:39.612Z,15.70
2018-09-12T03:00:10.640Z,15.70
2018-09-12T03:02:39.271Z,15.70
2018-09-12T03:05:07.964Z,15.70
2018-09-12T03:07:36.608Z,15.70
2018-09-12T03:10:06.310Z,15.70
2018-09-12T03:12:35.068Z,15.70
2018-09-12T03:15:04.079Z,15.60
2018-09-12T03:17:32.652Z,15.60
2018-09-12T03:20:01.269Z,15.60
2018-09-12T03:22:29.927Z,15.60
2018-09-12T03:24:58.540Z,15.60
2018-09-12T03:27:27.243Z,15.60
2018-09-12T03:29:55.835Z,15.60
2018-09-12T03:32:24.445Z,15.60
2018-09-12T03:34:53.011Z,15.60
2018-09-12T03:37:21.669Z,15.60
2018-09-12T03:39:50.217Z,15.60
2018-09-12T03:42:18.777Z,15.60
2018-09-12T03:44:47.403Z,15.60
2018-09-12T03:47:16.635Z,15.50
2018-09-12T03:49:45.220Z,15.60
2018-09-12T03:52:13.823Z,15.60
2018-09-12T03:54:42.433Z,15.60
2018-09-12T03:57:11.100Z,15.60
2018-09-12T03:59:39.677Z,15.50
2018-09-12T04:02:08.325Z,15.50
2018-09-12T04:04:36.989Z,15.50
2018-09-12T04:07:05.651Z,15.50
2018-09-12T04:09:34.195Z,15.50
2018-09-12T04:12:02.726Z,15.50
2018-09-12T04:14:31.263Z,15.50
2018-09-12T04:16:59.953Z,15.50
2018-09-12T04:19:28.455Z,15.50
2018-09-12T04:21:57.073Z,15.50
2018-09-12T04:24:25.719Z,15.50
2018-09-12T04:26:54.155Z,15.40
2018-09-12T04:29:22.744Z,15.40
2018-09-12T04:31:51.255Z,15.40
2018-09-12T04:34:19.868Z,15.40
2018-09-12T04:36:48.383Z,15.40
2018-09-12T04:39:17.019Z,15.40
2018-09-12T04:41:45.567Z,15.40
2018-09-12T04:44:14.170Z,15.30
2018-09-12T04:46:42.791Z,15.30
2018-09-12T04:49:11.398Z,15.30
2018-09-12T04:51:39.927Z,15.30
2018-09-12T04:54:08.482Z,15.30
2018-09-12T04:56:36.995Z,15.30
2018-09-12T04:59:05.905Z,15.30
2018-09-12T05:01:34.426Z,15.30
2018-09-12T05:04:02.932Z,15.30
2018-09-12T05:06:31.532Z,15.40
2018-09-12T05:09:00.045Z,15.30
2018-09-12T05:11:28.624Z,15.40
2018-09-12T05:13:57.158Z,15.40
2018-09-12T05:16:25.714Z,15.40
2018-09-12T05:18:54.243Z,15.40
2018-09-12T05:21:22.789Z,15.40
2018-09-12T05:23:51.301Z,15.40
2018-09-12T05:26:19.895Z,15.40
2018-09-12T05:28:48.385Z,15.40
2018-09-12T05:31:16.944Z,15.40
2018-09-12T05:33:45.512Z,15.50
2018-09-12T05:36:14.114Z,15.50
2018-09-12T05:38:42.714Z,15.50
2018-09-12T05:41:11.249Z,15.50
2018-09-12T05:43:39.806Z,15.60
2018-09-12T05:46:10.706Z,15.60
2018-09-12T05:48:39.293Z,15.70
2018-09-12T05:51:07.834Z,15.70
2018-09-12T05:53:36.355Z,15.80
2018-09-12T05:56:05.158Z,15.90
2018-09-12T05:58:33.760Z,15.90
2018-09-12T06:01:02.319Z,16.00
2018-09-12T06:03:30.846Z,16.10
2018-09-12T06:05:59.392Z,16.20
2018-09-12T06:08:28.020Z,16.30
2018-09-12T06:10:56.522Z,16.40
2018-09-12T06:13:25.064Z,16.50
2018-09-12T06:15:53.556Z,16.60
2018-09-12T06:18:22.088Z,16.80
2018-09-12T06:20:50.581Z,16.90
2018-09-12T06:23:19.129Z,17.00
2018-09-12T06:25:47.631Z,17.10
2018-09-12T06:28:16.164Z,17.30
2018-09-12T06:30:44.712Z,17.40
2018-09-12T06:33:13.220Z,17.50
2018-09-12T06:35:41.705Z,17.60
2018-09-12T06:38:10.255Z,17.70
2018-09-12T06:40:38.778Z,17.90
2018-09-12T06:43:07.812Z,18.00
2018-09-12T06:45:36.368Z,18.20
2018-09-12T06:48:05.173Z,18.40
2018-09-12T06:50:33.703Z,18.50
2018-09-12T06:53:02.580Z,18.70
2018-09-12T06:55:31.071Z,18.80
2018-09-12T06:57:59.695Z,18.90
2018-09-12T07:00:28.244Z,19.10
2018-09-12T07:02:56.755Z,19.20
2018-09-12T07:05:25.324Z,19.40
2018-09-12T07:07:53.879Z,19.50
2018-09-12T07:10:22.443Z,19.70
2018-09-12T07:12:50.958Z,19.80
2018-09-12T07:15:19.503Z,20.00
2018-09-12T07:17:48.007Z,20.10
2018-09-12T07:20:16.552Z,20.30
2018-09-12T07:22:45.076Z,20.40
2018-09-12T07:25:13.622Z,20.60
2018-09-12T07:27:42.175Z,20.70
2018-09-12T07:30:10.743Z,20.80
2018-09-12T07:32:39.250Z,21.00
2018-09-12T07:35:07.861Z,21.10
2018-09-12T07:37:36.419Z,21.30
2018-09-12T07:42:39.376Z,21.60
2018-09-12T07:45:08.223Z,21.80
2018-09-12T07:47:36.717Z,21.90
2018-09-12T07:50:05.461Z,22.00
2018-09-12T07:52:34.080Z,22.20
2018-09-12T07:55:02.933Z,22.40
2018-09-12T07:57:31.892Z,22.50
2018-09-12T08:00:00.551Z,22.60
2018-09-12T08:02:29.128Z,22.80
2018-09-12T08:04:57.725Z,22.90
2018-09-12T08:07:26.259Z,23.10
2018-09-12T08:09:54.752Z,23.20
2018-09-12T08:12:23.300Z,23.40
2018-09-12T08:14:51.808Z,23.50
2018-09-12T08:17:20.354Z,23.70
2018-09-12T08:19:48.902Z,23.80
2018-09-12T08:22:17.430Z,24.00
2018-09-12T08:24:46.126Z,24.10
2018-09-12T08:27:14.688Z,24.30
2018-09-12T08:29:43.197Z,24.50
2018-09-12T08:32:11.734Z,24.70
2018-09-12T08:34:40.240Z,24.80
2018-09-12T08:37:08.799Z,25.00
2018-09-12T08:39:37.299Z,25.10
2018-09-12T08:42:06.040Z,25.20
2018-09-12T08:44:34.556Z,25.30
2018-09-12T08:47:03.165Z,25.50
2018-09-12T08:49:31.960Z,25.70
2018-09-12T08:52:00.489Z,25.80
2018-09-12T08:54:29.013Z,25.90
2018-09-12T08:56:57.547Z,26.00
2018-09-12T08:59:26.130Z,26.20
2018-09-12T09:01:54.686Z,26.40
2018-09-12T09:04:23.256Z,26.50
2018-09-12T09:06:51.867Z,26.60
2018-09-12T09:09:20.420Z,26.80
2018-09-12T09:11:49.001Z,26.90
2018-09-12T09:14:17.621Z,27.10
2018-09-12T09:16:46.170Z,27.20
2018-09-12T09:19:14.715Z,27.30
2018-09-12T09:21:43.219Z,27.40
2018-09-12T09:24:11.774Z,27.50
2018-09-12T09:26:40.274Z,27.60
2018-09-12T09:29:08.830Z,27.60
2018-09-12T09:31:37.361Z,27.70
2018-09-12T09:34:05.980Z,27.80
2018-09-12T09:36:34.496Z,27.90
2018-09-12T09:39:03.096Z,28.10
2018-09-12T09:41:31.615Z,28.10
2018-09-12T09:44:00.243Z,28.20
2018-09-12T09:46:28.685Z,28.40
2018-09-12T09:48:57.254Z,28.50
2018-09-12T09:51:25.769Z,28.50
2018-09-12T09:53:54.316Z,28.60
2018-09-12T09:56:22.886Z,28.80
2018-09-12T09:58:51.415Z,28.90
2018-09-12T10:01:25.280Z,29.00
2018-09-12T10:03:59.184Z,29.10
2018-09-12T10:06:28.596Z,29.00
2018-09-12T10:08:58.595Z,29.00
2018-09-12T10:11:27.209Z,29.20
2018-09-12T10:13:55.691Z,29.30
2018-09-12T10:16:24.255Z,29.40
2018-09-12T10:18:52.755Z,29.50
2018-09-12T10:21:21.326Z,29.60
2018-09-12T10:23:49.819Z,29.60
2018-09-12T10:26:18.491Z,29.70
2018-09-12T10:28:46.996Z,29.80
2018-09-12T10:31:15.577Z,30.10
2018-09-12T10:33:44.155Z,30.10
2018-09-12T10:36:12.783Z,30.10
2018-09-12T10:38:41.311Z,30.20
2018-09-12T10:41:09.923Z,30.30
2018-09-12T10:43:38.487Z,30.40
2018-09-12T10:46:07.036Z,30.40
2018-09-12T10:48:35.635Z,30.40
2018-09-12T10:51:04.159Z,30.50
2018-09-12T10:53:32.753Z,30.50
2018-09-12T10:56:01.546Z,30.60
2018-09-12T10:58:30.196Z,30.60
2018-09-12T11:00:58.758Z,30.50
2018-09-12T11:03:27.360Z,30.60
2018-09-12T11:05:55.901Z,30.60
2018-09-12T11:08:24.487Z,30.70
2018-09-12T11:10:53.000Z,30.90
2018-09-12T11:13:21.556Z,31.00
2018-09-12T11:15:50.124Z,31.10
2018-09-12T11:18:18.692Z,31.10
2018-09-12T11:20:47.184Z,31.20
2018-09-12T11:23:15.723Z,31.20
2018-09-12T11:25:44.291Z,31.30
2018-09-12T11:28:12.831Z,31.40
2018-09-12T11:30:41.415Z,31.50
2018-09-12T11:33:09.913Z,31.50
2018-09-12T11:35:39.454Z,31.50
2018-09-12T11:38:08.030Z,31.50
2018-09-12T11:40:36.599Z,31.60
2018-09-12T11:43:05.123Z,31.70
2018-09-12T11:45:33.778Z,31.70
2018-09-12T11:48:02.307Z,31.80
2018-09-12T11:50:30.843Z,31.80
2018-09-12T11:52:59.373Z,32.00
2018-09-12T11:55:27.976Z,31.90
2018-09-12T11:57:56.427Z,31.80
2018-09-12T12:00:24.985Z,31.70
2018-09-12T12:02:53.491Z,31.80
2018-09-12T12:05:25.623Z,31.90
2018-09-12T12:07:54.176Z,31.90
2018-09-12T12:10:22.767Z,31.70
2018-09-12T12:12:51.251Z,31.70
2018-09-12T12:15:19.854Z,31.60
2018-09-12T12:17:48.294Z,31.50
2018-09-12T12:20:16.831Z,31.70
2018-09-12T12:22:45.380Z,31.70
2018-09-12T12:25:13.897Z,31.80
2018-09-12T12:27:42.415Z,31.80
2018-09-12T12:30:10.964Z,31.90
2018-09-12T12:32:39.499Z,31.90
2018-09-12T12:35:07.999Z,32.00
2018-09-12T12:37:36.687Z,32.00
2018-09-12T12:40:05.332Z,32.10
2018-09-12T12:42:33.873Z,32.20
2018-09-12T12:45:02.407Z,32.30
2018-09-12T12:47:31.884Z,32.30
2018-09-12T12:50:00.415Z,32.20
2018-09-12T12:52:29.015Z,32.10
2018-09-12T12:54:57.518Z,32.20
2018-09-12T12:57:26.068Z,32.30
2018-09-12T12:59:54.711Z,32.20
2018-09-12T13:02:23.300Z,32.30
2018-09-12T13:04:51.803Z,32.30
2018-09-12T13:07:20.370Z,32.40
2018-09-12T13:09:48.894Z,32.40
2018-09-12T13:12:17.429Z,32.40
2018-09-12T13:14:45.983Z,32.30
2018-09-12T13:17:14.542Z,32.20
2018-09-12T13:19:43.055Z,32.10
2018-09-12T13:22:11.574Z,32.10
2018-09-12T13:24:40.097Z,32.00
2018-09-12T13:27:08.645Z,32.10
2018-09-12T13:29:37.134Z,32.30
2018-09-12T13:32:05.668Z,32.20
2018-09-12T13:34:34.268Z,32.00
2018-09-12T13:37:02.722Z,32.10
2018-09-12T13:39:31.282Z,32.10
2018-09-12T13:41:59.766Z,32.10
2018-09-12T13:44:28.395Z,32.10
2018-09-12T13:46:56.856Z,32.10
2018-09-12T13:49:25.386Z,32.10
2018-09-12T13:51:53.869Z,32.20
2018-09-12T13:54:22.402Z,32.10
2018-09-12T13:56:50.912Z,32.20
2018-09-12T13:59:19.450Z,32.20
2018-09-12T14:01:47.942Z,32.20
2018-09-12T14:04:16.514Z,32.10
2018-09-12T14:06:44.999Z,32.10
2018-09-12T14:09:13.558Z,32.10
2018-09-12T14:11:42.091Z,32.00
2018-09-12T14:14:10.628Z,31.90
2018-09-12T14:16:39.150Z,31.70
2018-09-12T14:19:07.691Z,31.70
2018-09-12T14:21:36.850Z,31.60
2018-09-12T14:24:05.354Z,31.50
2018-09-12T14:26:33.931Z,31.50
2018-09-12T14:29:02.438Z,31.50
2018-09-12T14:31:30.986Z,31.50
2018-09-12T14:33:59.514Z,31.50
2018-09-12T14:36:28.058Z,31.50
2018-09-12T14:38:56.631Z,31.50
2018-09-12T14:41:25.176Z,31.50
2018-09-12T14:43:53.682Z,31.40
2018-09-12T14:46:22.212Z,31.40
2018-09-12T14:48:50.725Z,31.40
2018-09-12T14:51:19.266Z,31.30
2018-09-12T14:53:47.835Z,31.10
2018-09-12T14:56:16.378Z,31.00
2018-09-12T14:58:44.902Z,30.90
2018-09-12T15:01:13.436Z,30.90
2018-09-12T15:03:41.930Z,30.80
2018-09-12T15:06:10.446Z,30.70
2018-09-12T15:08:39.063Z,30.60
2018-09-12T15:11:07.580Z,30.60
2018-09-12T15:13:36.185Z,30.50
2018-09-12T15:16:04.707Z,30.40
2018-09-12T15:18:33.271Z,30.30
2018-09-12T15:21:01.773Z,30.30
2018-09-12T15:23:30.304Z,30.20
2018-09-12T15:25:58.839Z,30.10
2018-09-12T15:28:27.380Z,30.00
2018-09-12T15:30:55.910Z,30.00
2018-09-12T15:33:24.469Z,29.80
2018-09-12T15:35:53.044Z,29.80
2018-09-12T15:38:21.593Z,29.60
2018-09-12T15:40:50.115Z,29.60
2018-09-12T15:43:18.663Z,29.40
2018-09-12T15:45:47.178Z,29.40
2018-09-12T15:48:15.720Z,29.30
2018-09-12T15:50:44.227Z,29.20
2018-09-12T15:53:12.776Z,29.10
2018-09-12T15:55:41.277Z,29.00
2018-09-12T15:58:09.847Z,28.90
2018-09-12T16:00:38.378Z,28.90
2018-09-12T16:03:07.015Z,28.80
2018-09-12T16:05:35.522Z,28.70
2018-09-12T16:08:04.681Z,28.60
2018-09-12T16:10:33.212Z,28.50
2018-09-12T16:13:01.733Z,28.50
2018-09-12T16:15:30.340Z,28.40
2018-09-12T16:17:58.857Z,28.30
2018-09-12T16:20:27.405Z,28.20
2018-09-12T16:22:55.994Z,28.10
2018-09-12T16:25:24.492Z,28.10
2018-09-12T16:27:52.994Z,28.00
2018-09-12T16:30:21.552Z,27.90
2018-09-12T16:32:50.099Z,27.80
2018-09-12T16:35:18.626Z,27.70
2018-09-12T16:37:47.154Z,27.60
2018-09-12T16:40:15.856Z,27.50
2018-09-12T16:42:44.346Z,27.40
2018-09-12T16:45:12.882Z,27.40
2018-09-12T16:47:41.462Z,27.30
2018-09-12T16:50:10.092Z,27.20
2018-09-12T16:52:38.646Z,27.10
2018-09-12T16:55:07.258Z,27.00
2018-09-12T16:57:35.861Z,26.90
2018-09-12T17:00:04.683Z,26.80
2018-09-12T17:02:33.261Z,26.70
2018-09-12T17:05:01.790Z,26.70
2018-09-12T17:07:30.472Z,26.50
2018-09-12T17:09:59.050Z,26.40
2018-09-12T17:12:27.596Z,26.30
2018-09-12T17:14:56.128Z,26.10
2018-09-12T17:17:24.684Z,26.00
2018-09-12T17:19:53.190Z,25.90
2018-09-12T17:22:21.780Z,25.70
2018-09-12T17:24:50.286Z,25.60
2018-09-12T17:27:18.843Z,25.50
2018-09-12T17:29:47.394Z,25.40
2018-09-12T17:32:15.947Z,25.30
2018-09-12T17:34:44.437Z,25.10
2018-09-12T17:37:12.984Z,24.90
2018-09-12T17:39:41.479Z,24.80
2018-09-12T17:42:10.058Z,24.70
2018-09-12T17:44:38.580Z,24.60
2018-09-12T17:47:07.134Z,24.50
2018-09-12T17:49:35.666Z,24.40
2018-09-12T17:52:04.632Z,24.30
2018-09-12T17:54:33.162Z,24.20
2018-09-12T17:57:01.682Z,24.10
2018-09-12T17:59:30.321Z,24.00
2018-09-12T18:01:58.853Z,23.90
2018-09-12T18:04:27.428Z,23.80
2018-09-12T18:06:55.979Z,23.70
2018-09-12T18:09:26.075Z,23.60
2018-09-12T18:11:54.643Z,23.50
2018-09-12T18:14:23.228Z,23.40
2018-09-12T18:16:51.752Z,23.30
2018-09-12T18:19:20.340Z,23.20
2018-09-12T18:21:48.836Z,23.20
2018-09-12T18:24:17.438Z,23.10
2018-09-12T18:26:45.939Z,23.00
2018-09-12T18:29:14.691Z,22.90
2018-09-12T18:31:43.231Z,22.80
2018-09-12T18:34:11.785Z,22.70
2018-09-12T18:36:40.293Z,22.60
2018-09-12T18:39:09.787Z,22.50
2018-09-12T18:41:38.323Z,22.50
2018-09-12T18:44:07.159Z,22.40
2018-09-12T18:46:35.713Z,22.30
2018-09-12T18:49:04.303Z,22.10
2018-09-12T18:51:32.856Z,22.00
2018-09-12T18:54:01.382Z,21.90
2018-09-12T18:56:29.947Z,21.80
2018-09-12T18:58:58.478Z,21.80
2018-09-12T19:01:27.044Z,21.70
2018-09-12T19:03:55.555Z,21.50
2018-09-12T19:06:24.121Z,21.40
2018-09-12T19:08:52.673Z,21.40
2018-09-12T19:11:21.236Z,21.30
2018-09-12T19:13:49.739Z,21.20
2018-09-12T19:16:18.327Z,21.20
2018-09-12T19:18:46.904Z,21.10
2018-09-12T19:21:15.497Z,21.00
2018-09-12T19:23:44.089Z,21.00
2018-09-12T19:26:12.665Z,20.90
2018-09-12T19:28:41.182Z,20.90
2018-09-12T19:31:10.917Z,20.80
2018-09-12T19:33:39.442Z,20.80
2018-09-12T19:36:08.049Z,20.70
2018-09-12T19:38:36.572Z,20.60
2018-09-12T19:41:05.132Z,20.50
2018-09-12T19:43:33.661Z,20.50
2018-09-12T19:46:02.960Z,20.40
2018-09-12T19:48:31.508Z,20.40
2018-09-12T19:51:00.040Z,20.30
2018-09-12T19:53:28.824Z,20.30
2018-09-12T19:55:57.360Z,20.30
2018-09-12T19:58:26.817Z,20.20
2018-09-12T20:00:55.367Z,20.10
2018-09-12T20:03:23.923Z,20.10
2018-09-12T20:05:52.438Z,20.00
2018-09-12T20:08:21.042Z,19.90
2018-09-12T20:10:49.548Z,19.90
2018-09-12T20:13:18.150Z,19.80
2018-09-12T20:15:46.702Z,19.70
2018-09-12T20:18:15.313Z,19.70
2018-09-12T20:20:43.873Z,19.60
2018-09-12T20:23:12.443Z,19.60
2018-09-12T20:25:40.986Z,19.50
2018-09-12T20:28:09.564Z,19.50
2018-09-12T20:30:38.125Z,19.50
2018-09-12T20:33:06.741Z,19.40
2018-09-12T20:35:35.328Z,19.40
2018-09-12T20:38:04.167Z,19.30
2018-09-12T20:40:32.667Z,19.30
2018-09-12T20:43:03.025Z,19.30
2018-09-12T20:45:31.557Z,19.30
2018-09-12T20:48:00.131Z,19.30
2018-09-12T20:50:28.765Z,19.20
2018-09-12T20:52:57.235Z,19.30
2018-09-12T20:55:25.822Z,19.20
2018-09-12T20:57:54.364Z,19.30
2018-09-12T21:00:23.176Z,19.30
2018-09-12T21:02:51.689Z,19.30
2018-09-12T21:05:20.271Z,19.30
2018-09-12T21:07:48.864Z,19.30
2018-09-12T21:10:17.431Z,19.30
2018-09-12T21:12:45.943Z,19.30
2018-09-12T21:15:14.499Z,19.30
2018-09-12T21:17:43.030Z,19.30
2018-09-12T21:20:11.624Z,19.30
2018-09-12T21:22:40.192Z,19.30
2018-09-12T21:25:08.759Z,19.20
2018-09-12T21:27:37.275Z,19.20
2018-09-12T21:30:06.911Z,19.20
2018-09-12T21:32:35.640Z,19.10
2018-09-12T21:35:04.261Z,19.10
2018-09-12T21:37:32.791Z,19.10
2018-09-12T21:40:03.953Z,19.10
2018-09-12T21:42:32.460Z,19.00
2018-09-12T21:45:01.010Z,19.00
2018-09-12T21:47:29.550Z,18.90
2018-09-12T21:49:58.084Z,18.80
2018-09-12T21:52:26.626Z,18.80
2018-09-12T21:54:55.100Z,18.80
2018-09-12T21:57:23.644Z,18.80
2018-09-12T21:59:52.164Z,18.70
2018-09-12T22:02:20.758Z,18.60
2018-09-12T22:04:49.319Z,18.60
2018-09-12T22:07:17.867Z,18.60
2018-09-12T22:09:46.437Z,18.50
2018-09-12T22:12:15.056Z,18.50
2018-09-12T22:14:43.582Z,18.50
2018-09-12T22:17:12.147Z,18.40
2018-09-12T22:19:40.680Z,18.40
2018-09-12T22:22:09.245Z,18.50
2018-09-12T22:24:37.762Z,18.40
2018-09-12T22:27:06.330Z,18.40
2018-09-12T22:29:34.860Z,18.30
2018-09-12T22:32:03.609Z,18.30
2018-09-12T22:34:32.141Z,18.30
2018-09-12T22:37:00.708Z,18.20
2018-09-12T22:39:29.226Z,18.20
2018-09-12T22:41:57.757Z,18.10
2018-09-12T22:44:26.340Z,18.10
2018-09-12T22:46:54.862Z,18.10
2018-09-12T22:49:23.488Z,18.00
2018-09-12T22:51:51.980Z,18.00
2018-09-12T22:54:20.523Z,18.00
2018-09-12T22:56:49.023Z,18.00
2018-09-12T22:59:17.549Z,18.00
2018-09-12T23:01:46.082Z,17.90
2018-09-12T23:04:14.617Z,17.90
2018-09-12T23:06:43.141Z,17.90
2018-09-12T23:09:11.811Z,17.90
2018-09-12T23:11:40.284Z,17.90
2018-09-12T23:14:09.044Z,17.90
2018-09-12T23:16:38.009Z,17.90
2018-09-12T23:19:06.576Z,17.90
2018-09-12T23:21:35.083Z,17.90
2018-09-12T23:24:03.663Z,17.90
2018-09-12T23:26:32.193Z,17.90
2018-09-12T23:29:00.727Z,17.90
2018-09-12T23:31:29.236Z,17.80
2018-09-12T23:33:57.765Z,17.80
2018-09-12T23:36:26.251Z,17.80
2018-09-12T23:38:54.870Z,17.80
2018-09-12T23:41:23.381Z,17.80
2018-09-12T23:43:51.879Z,17.70
2018-09-12T23:46:20.449Z,17.70
2018-09-12T23:48:48.979Z,17.70
2018-09-12T23:51:17.588Z,17.60
2018-09-12T23:53:46.131Z,17.60
2018-09-12T23:56:14.655Z,17.60
2018-09-12T23:58:43.193Z,17.50
